Time;durP1;ratioP1;P1;durP2;ratioP2;P2;SDS_P1;SDS_P2;PMS_P1;PMS_P2;Temp;Humidity;BMP_temperature;BMP_pressure;BME280_temperature;BME280_humidity;BME280_pressure;Samples;Min_cycle;Max_cycle;Signal;HPM_P1;HPM_P2
2022/09/12 00:01:18;;;;;;;7.55;4.22;;;17.50;78.50;;;;;;5072938;28;20025;-16
2022/09/12 00:03:44;;;;;;;5.03;3.80;;;17.40;78.30;;;;;;5073557;28;20032;-15
2022/09/12 00:06:17;;;;;;;6.03;3.83;;;17.40;79.00;;;;;;5073393;28;20488;-15
2022/09/12 00:08:43;;;;;;;6.93;4.15;;;17.40;78.70;;;;;;5073274;28;20031;-15
2022/09/12 00:11:11;;;;;;;5.47;3.92;;;17.30;78.90;;;;;;5072747;28;20025;-16
2022/09/12 00:13:39;;;;;;;5.80;3.35;;;17.20;78.70;;;;;;5073541;28;20107;-16
2022/09/12 00:16:26;;;;;;;7.80;4.50;;;17.20;78.80;;;;;;5073146;28;20388;-15
2022/09/12 00:18:52;;;;;;;4.80;3.97;;;17.20;79.00;;;;;;5073182;28;20031;-15
2022/09/12 00:21:20;;;;;;;5.85;4.35;;;17.20;78.90;;;;;;5073234;28;20024;-15
2022/09/12 00:23:46;;;;;;;6.50;4.30;;;17.10;78.90;;;;;;5073331;28;20495;-14
2022/09/12 00:26:13;;;;;;;8.27;4.70;;;17.10;79.10;;;;;;5073225;28;20020;-15
2022/09/12 00:28:40;;;;;;;5.78;4.72;;;17.00;79.40;;;;;;5072915;28;20041;-15
2022/09/12 00:31:09;;;;;;;7.03;4.40;;;17.00;79.60;;;;;;5072655;28;20074;-15
2022/09/12 00:33:35;;;;;;;4.70;3.50;;;16.90;79.60;;;;;;5073366;28;20033;-15
2022/09/12 00:36:07;;;;;;;5.25;4.00;;;16.90;79.60;;;;;;5075346;28;20384;-15
2022/09/12 00:38:37;;;;;;;6.55;4.57;;;16.80;79.70;;;;;;5077064;28;20025;-15
2022/09/12 00:41:04;;;;;;;7.20;4.70;;;16.80;79.70;;;;;;5076671;28;20020;-14
2022/09/12 00:43:40;;;;;;;6.18;4.28;;;16.80;80.20;;;;;;5076717;28;20024;-15
2022/09/12 00:46:25;;;;;;;6.60;4.60;;;16.70;80.10;;;;;;5077002;28;20062;-15
2022/09/12 00:48:57;;;;;;;4.93;3.85;;;16.70;80.20;;;;;;5076644;28;20020;-18
2022/09/12 00:51:24;;;;;;;4.55;3.80;;;16.60;80.40;;;;;;5076504;28;20042;-15
2022/09/12 00:53:52;;;;;;;7.20;3.75;;;16.60;80.20;;;;;;5076532;28;20074;-14
2022/09/12 00:56:21;;;;;;;5.47;3.75;;;16.60;80.20;;;;;;5076623;28;20442;-16
2022/09/12 00:59:14;;;;;;;5.55;3.78;;;16.60;80.20;;;;;;5076605;28;20100;-16
2022/09/12 01:01:43;;;;;;;5.45;3.60;;;16.60;80.30;;;;;;5076961;28;20016;-15
2022/09/12 01:04:11;;;;;;;5.93;3.92;;;16.60;80.10;;;;;;5076587;28;20022;-15
2022/09/12 01:06:42;;;;;;;7.78;5.03;;;16.50;80.30;;;;;;5076516;28;20028;-15
2022/09/12 01:09:14;;;;;;;7.43;4.00;;;16.60;81.10;;;;;;5076429;28;20411;-15
2022/09/12 01:11:41;;;;;;;6.35;3.83;;;16.50;81.10;;;;;;5076591;28;20035;-15
2022/09/12 01:14:08;;;;;;;6.50;3.90;;;16.50;80.80;;;;;;5076120;28;20090;-16
2022/09/12 01:16:37;;;;;;;7.18;4.45;;;16.40;81.30;;;;;;5076302;28;20029;-15
2022/09/12 01:19:31;;;;;;;5.47;4.30;;;16.40;81.70;;;;;;5076038;28;20031;-15
2022/09/12 01:22:34;;;;;;;4.38;3.30;;;16.40;81.50;;;;;;5076442;28;20020;-15
2022/09/12 01:25:53;;;;;;;8.23;4.22;;;16.40;80.90;;;;;;5075795;28;20430;-15
2022/09/12 01:28:52;;;;;;;5.28;4.03;;;16.40;80.80;;;;;;5013930;28;20402;-15
2022/09/12 01:31:23;;;;;;;6.15;3.67;;;16.40;80.80;;;;;;5014034;28;20116;-16
2022/09/12 01:33:49;;;;;;;5.53;4.05;;;16.40;81.80;;;;;;5065692;28;20036;-16
2022/09/12 01:36:48;;;;;;;6.38;3.42;;;16.40;81.40;;;;;;5075704;28;20036;-15
2022/09/12 01:39:17;;;;;;;6.72;4.53;;;16.40;81.10;;;;;;5075726;28;20059;-15
2022/09/12 01:42:01;;;;;;;8.85;4.00;;;16.40;81.00;;;;;;5075951;28;20024;-16
2022/09/12 01:44:44;;;;;;;7.30;4.95;;;16.30;80.90;;;;;;5075901;28;20112;-16
2022/09/12 01:47:33;;;;;;;5.78;3.95;;;16.30;81.10;;;;;;5074597;28;20494;-16
2022/09/12 01:50:07;;;;;;;5.68;3.50;;;16.30;81.70;;;;;;5075801;28;20025;-15
2022/09/12 01:52:36;;;;;;;5.38;3.45;;;16.30;81.50;;;;;;5075976;28;20040;-15
2022/09/12 01:55:19;;;;;;;5.88;3.40;;;16.30;81.50;;;;;;5075249;28;20559;-15
2022/09/12 01:58:07;;;;;;;5.38;4.10;;;16.30;81.30;;;;;;5075792;28;20021;-15
2022/09/12 02:00:43;;;;;;;5.00;3.60;;;16.40;81.50;;;;;;5075616;28;20023;-15
2022/09/12 02:03:22;;;;;;;4.13;3.20;;;16.40;81.30;;;;;;5075113;28;20028;-15
2022/09/12 02:05:59;;;;;;;6.25;4.15;;;16.40;81.30;;;;;;5075557;28;20016;-15
2022/09/12 02:08:37;;;;;;;6.85;4.22;;;16.50;81.20;;;;;;5075467;28;20500;-15
2022/09/12 02:11:09;;;;;;;6.93;5.25;;;16.50;81.10;;;;;;5074920;28;20112;-15
2022/09/12 02:13:47;;;;;;;7.17;5.27;;;16.60;81.00;;;;;;5075167;28;20077;-16
2022/09/12 02:16:23;;;;;;;7.55;4.93;;;16.70;81.10;;;;;;5075399;28;20033;-17
2022/09/12 02:18:56;;;;;;;6.90;4.65;;;16.70;81.10;;;;;;5074879;28;20062;-15
2022/09/12 02:21:24;;;;;;;9.60;5.20;;;16.80;81.20;;;;;;5075290;28;20101;-16
2022/09/12 02:23:57;;;;;;;8.23;4.32;;;16.80;81.20;;;;;;5073612;28;20028;-15
2022/09/12 02:26:40;;;;;;;5.40;3.90;;;16.80;81.20;;;;;;5074892;28;20024;-18
2022/09/12 02:29:06;;;;;;;4.40;3.60;;;16.90;81.20;;;;;;5074439;28;20052;-16
2022/09/12 02:31:53;;;;;;;4.80;3.58;;;16.90;81.10;;;;;;5074924;28;20036;-16
2022/09/12 02:35:07;;;;;;;6.90;3.80;;;16.90;81.00;;;;;;5074980;28;20017;-16
2022/09/12 02:37:59;;;;;;;4.43;3.88;;;17.00;81.10;;;;;;5012940;28;20030;-16
2022/09/12 02:40:26;;;;;;;4.57;3.78;;;17.10;80.90;;;;;;5013045;28;20069;-16
2022/09/12 02:42:52;;;;;;;8.20;4.10;;;17.10;80.80;;;;;;5012524;28;20053;-17
2022/09/12 02:45:19;;;;;;;5.18;3.22;;;17.10;80.70;;;;;;5012578;28;20034;-16
2022/09/12 02:47:57;;;;;;;7.07;5.22;;;17.10;80.60;;;;;;5012916;28;20034;-16
2022/09/12 02:50:24;;;;;;;3.58;3.15;;;17.20;81.10;;;;;;5012635;28;20029;-16
2022/09/12 02:52:52;;;;;;;8.70;3.90;;;17.20;81.00;;;;;;5012261;28;20038;-15
2022/09/12 02:55:19;;;;;;;5.13;4.30;;;17.10;81.20;;;;;;5012503;28;20451;-16
2022/09/12 02:57:44;;;;;;;5.32;3.67;;;17.10;81.20;;;;;;4995970;28;20030;-15
2022/09/12 03:00:11;;;;;;;3.45;3.10;;;17.10;81.20;;;;;;5012317;28;20033;-16
2022/09/12 03:03:12;;;;;;;4.03;3.35;;;17.10;81.00;;;;;;5012325;28;20022;-15
2022/09/12 03:06:01;;;;;;;4.38;3.38;;;17.00;81.00;;;;;;5012748;28;20042;-15
2022/09/12 03:08:45;;;;;;;4.70;3.15;;;17.00;81.00;;;;;;5012668;28;20022;-16
2022/09/12 03:11:33;;;;;;;5.50;3.30;;;17.00;81.20;;;;;;5028555;28;20041;-15
2022/09/12 03:14:29;;;;;;;5.47;3.47;;;17.00;81.20;;;;;;5073950;28;20052;-15
2022/09/12 03:17:02;;;;;;;5.13;3.90;;;17.00;81.10;;;;;;5073877;28;20077;-15
2022/09/12 03:19:55;;;;;;;5.57;3.40;;;16.90;81.40;;;;;;5073886;28;20487;-15
2022/09/12 03:22:32;;;;;;;7.78;3.45;;;16.90;81.30;;;;;;5074106;28;20023;-17
2022/09/12 03:25:20;;;;;;;4.35;3.63;;;16.90;81.30;;;;;;5073603;28;20399;-16
2022/09/12 03:28:08;;;;;;;3.92;3.13;;;16.90;81.50;;;;;;5074426;28;20016;-15
2022/09/12 03:30:43;;;;;;;4.70;3.88;;;16.90;81.50;;;;;;5073380;28;20049;-15
2022/09/12 03:33:17;;;;;;;8.68;4.78;;;16.80;81.50;;;;;;5073415;28;20029;-15
2022/09/12 03:35:45;;;;;;;5.10;3.38;;;16.80;81.40;;;;;;5073959;28;20047;-15
2022/09/12 03:38:11;;;;;;;4.95;3.30;;;16.70;81.70;;;;;;5073473;28;20032;-17
2022/09/12 03:40:38;;;;;;;3.70;3.30;;;16.70;81.70;;;;;;5073522;28;20024;-17
2022/09/12 03:43:06;;;;;;;7.25;4.18;;;16.70;81.60;;;;;;5073495;28;20181;-16
2022/09/12 03:45:34;;;;;;;4.68;3.60;;;16.60;81.80;;;;;;5073997;28;20051;-16
2022/09/12 03:48:00;;;;;;;7.95;4.55;;;16.60;81.80;;;;;;5073505;28;20429;-15
2022/09/12 03:50:26;;;;;;;7.75;4.80;;;16.60;81.80;;;;;;5071859;28;20056;-15
2022/09/12 03:52:52;;;;;;;6.78;5.18;;;16.60;81.80;;;;;;5073179;28;20029;-18
2022/09/12 03:55:18;;;;;;;5.53;3.65;;;16.50;81.90;;;;;;5073841;28;20074;-16
2022/09/12 03:57:45;;;;;;;5.82;4.35;;;16.50;82.10;;;;;;5073437;28;20017;-16
2022/09/12 04:00:12;;;;;;;4.82;3.78;;;16.40;82.10;;;;;;5073495;28;20025;-16
2022/09/12 04:02:38;;;;;;;5.82;4.05;;;16.40;82.20;;;;;;5073153;28;20404;-17
2022/09/12 04:05:04;;;;;;;3.88;3.30;;;16.40;82.30;;;;;;5072909;28;20481;-16
2022/09/12 04:07:30;;;;;;;8.15;5.78;;;16.40;82.30;;;;;;5073305;28;20027;-16
2022/09/12 04:09:56;;;;;;;6.47;4.10;;;16.40;82.30;;;;;;5072571;28;20116;-17
2022/09/12 04:12:22;;;;;;;5.85;3.50;;;16.40;82.40;;;;;;5073126;28;20032;-16
2022/09/12 04:14:48;;;;;;;7.05;4.57;;;16.30;82.40;;;;;;5073145;28;20025;-18
2022/09/12 04:17:15;;;;;;;7.05;4.63;;;16.40;82.40;;;;;;5073371;28;20036;-16
2022/09/12 04:19:40;;;;;;;8.05;5.25;;;16.40;82.40;;;;;;5073236;28;20024;-16
2022/09/12 04:22:06;;;;;;;8.77;5.03;;;16.40;82.50;;;;;;5073158;28;20070;-15
2022/09/12 04:24:33;;;;;;;7.43;4.93;;;16.40;82.80;;;;;;5073108;28;20017;-18
2022/09/12 04:26:59;;;;;;;8.95;6.38;;;16.30;82.70;;;;;;5073007;28;20024;-15
2022/09/12 04:29:24;;;;;;;9.15;5.35;;;16.30;82.50;;;;;;5072804;28;20546;-17
2022/09/12 04:31:50;;;;;;;8.30;5.40;;;16.30;82.60;;;;;;5072983;28;20051;-15
2022/09/12 04:34:16;;;;;;;6.70;5.60;;;16.30;82.80;;;;;;5073029;28;20033;-17
2022/09/12 04:36:42;;;;;;;5.75;4.10;;;16.40;82.60;;;;;;5072762;28;20460;-17
2022/09/12 04:39:10;;;;;;;8.32;5.55;;;16.40;82.60;;;;;;5072552;28;20111;-15
2022/09/12 04:41:38;;;;;;;6.60;4.30;;;16.40;82.60;;;;;;5072745;28;20028;-15
2022/09/12 04:44:11;;;;;;;5.47;4.20;;;16.40;82.60;;;;;;5073068;28;20021;-15
2022/09/12 04:46:40;;;;;;;6.80;3.75;;;16.40;82.60;;;;;;5072725;28;20053;-16
2022/09/12 04:49:06;;;;;;;7.70;4.63;;;16.40;82.60;;;;;;5072481;28;20028;-15
2022/09/12 04:51:35;;;;;;;8.38;5.40;;;16.40;82.60;;;;;;5072584;28;20067;-16
2022/09/12 04:54:04;;;;;;;8.10;6.28;;;16.40;82.50;;;;;;5072620;28;20064;-16
2022/09/12 04:56:30;;;;;;;10.07;5.65;;;16.40;82.90;;;;;;5072946;28;20074;-16
2022/09/12 04:58:59;;;;;;;6.38;4.60;;;16.40;82.90;;;;;;5072391;28;20422;-16
2022/09/12 05:01:27;;;;;;;6.00;4.18;;;16.30;82.80;;;;;;5072868;28;20017;-15
2022/09/12 05:03:53;;;;;;;6.38;4.13;;;16.30;82.70;;;;;;5072986;28;20029;-15
2022/09/12 05:06:22;;;;;;;6.22;4.28;;;16.30;82.80;;;;;;5072731;28;20027;-16
2022/09/12 05:08:49;;;;;;;3.97;3.38;;;16.30;82.90;;;;;;5072391;28;20183;-17
2022/09/12 05:11:21;;;;;;;7.63;4.07;;;16.30;82.70;;;;;;5072938;28;20028;-15
2022/09/12 05:13:47;;;;;;;6.32;3.78;;;16.30;82.70;;;;;;5072503;28;20025;-15
2022/09/12 05:16:15;;;;;;;5.00;3.88;;;16.30;82.70;;;;;;5072753;28;20078;-16
2022/09/12 05:18:43;;;;;;;6.35;4.55;;;16.30;82.70;;;;;;5072575;28;20025;-15
2022/09/12 05:21:13;;;;;;;4.72;3.90;;;16.30;82.80;;;;;;5072232;28;20017;-15
2022/09/12 05:23:39;;;;;;;4.25;3.60;;;16.30;82.60;;;;;;5075076;28;20028;-17
2022/09/12 05:26:07;;;;;;;4.93;3.47;;;16.30;82.60;;;;;;5075974;28;20530;-16
2022/09/12 05:28:36;;;;;;;6.82;4.38;;;16.40;82.40;;;;;;5076007;28;20041;-15
2022/09/12 05:31:22;;;;;;;9.15;5.10;;;16.40;82.50;;;;;;5075717;28;20085;-16
2022/09/12 05:33:50;;;;;;;8.25;4.63;;;16.50;82.70;;;;;;5075990;28;20017;-15
2022/09/12 05:36:19;;;;;;;12.25;4.95;;;16.40;82.50;;;;;;5074558;28;20119;-16
2022/09/12 05:38:46;;;;;;;5.00;3.95;;;16.50;82.50;;;;;;5075852;28;20032;-16
2022/09/12 05:41:20;;;;;;;15.88;6.45;;;16.50;82.60;;;;;;5075495;28;20484;-17
2022/09/12 05:43:50;;;;;;;8.70;4.90;;;16.70;82.40;;;;;;5075985;28;20032;-16
2022/09/12 05:46:18;;;;;;;6.05;4.68;;;16.70;82.40;;;;;;5075780;28;20024;-16
2022/09/12 05:48:47;;;;;;;13.13;6.93;;;16.90;82.30;;;;;;5075985;28;20029;-15
2022/09/12 05:51:18;;;;;;;10.80;6.88;;;17.00;82.80;;;;;;5075741;28;20044;-15
2022/09/12 05:53:45;;;;;;;9.43;5.00;;;17.10;82.50;;;;;;5075509;28;20056;-16
2022/09/12 05:56:16;;;;;;;7.20;4.18;;;17.20;82.30;;;;;;5075451;28;20032;-15
2022/09/12 05:58:45;;;;;;;6.53;4.38;;;17.40;82.00;;;;;;5075457;28;20034;-16
2022/09/12 06:01:17;;;;;;;10.57;6.30;;;17.50;81.60;;;;;;5075213;28;20025;-15
2022/09/12 06:03:45;;;;;;;7.32;5.85;;;17.60;81.30;;;;;;5075695;28;20043;-17
2022/09/12 06:06:14;;;;;;;7.80;4.80;;;17.70;81.20;;;;;;5075225;28;20024;-16
2022/09/12 06:08:44;;;;;;;8.18;5.38;;;17.90;82.20;;;;;;5075518;28;20032;-17
2022/09/12 06:11:13;;;;;;;5.57;3.85;;;18.00;81.20;;;;;;5074901;28;20028;-17
2022/09/12 06:13:41;;;;;;;5.60;4.03;;;18.10;81.20;;;;;;5075099;28;20032;-16
2022/09/12 06:16:10;;;;;;;9.45;5.00;;;18.30;81.00;;;;;;5075369;28;20081;-15
2022/09/12 06:18:37;;;;;;;6.78;4.80;;;18.40;81.00;;;;;;5075031;28;20036;-15
2022/09/12 06:21:05;;;;;;;6.43;4.55;;;18.60;80.50;;;;;;5075038;28;20024;-15
2022/09/12 06:23:32;;;;;;;8.18;3.95;;;18.80;79.90;;;;;;5075201;28;20090;-16
2022/09/12 06:25:58;;;;;;;3.75;3.22;;;18.90;79.40;;;;;;5075250;28;20017;-15
2022/09/12 06:28:25;;;;;;;5.93;3.88;;;19.00;79.30;;;;;;5074480;28;20029;-15
2022/09/12 06:30:51;;;;;;;4.70;3.83;;;19.10;79.30;;;;;;5074502;28;20043;-15
2022/09/12 06:33:18;;;;;;;6.50;4.25;;;19.30;79.10;;;;;;5074847;28;20040;-15
2022/09/12 06:35:44;;;;;;;6.30;4.15;;;19.40;78.50;;;;;;5074684;28;20040;-15
2022/09/12 06:38:10;;;;;;;7.07;4.43;;;19.50;78.00;;;;;;5074786;28;20028;-15
2022/09/12 06:40:43;;;;;;;7.63;4.90;;;19.60;77.90;;;;;;5074819;28;20055;-15
2022/09/12 06:43:12;;;;;;;7.65;5.38;;;19.70;77.60;;;;;;5074410;28;20112;-15
2022/09/12 06:45:39;;;;;;;7.07;3.80;;;19.90;77.40;;;;;;5074738;28;20031;-15
2022/09/12 06:48:05;;;;;;;6.13;4.00;;;20.00;77.40;;;;;;5074380;28;20380;-15
2022/09/12 06:50:31;;;;;;;6.95;4.18;;;20.20;77.00;;;;;;5074311;28;20055;-16
2022/09/12 06:52:57;;;;;;;4.63;3.67;;;20.40;76.80;;;;;;5074434;28;20070;-15
2022/09/12 06:55:23;;;;;;;8.10;3.65;;;20.60;76.00;;;;;;5074626;28;20024;-15
2022/09/12 06:57:51;;;;;;;5.45;3.75;;;20.70;75.20;;;;;;5074680;28;20078;-15
2022/09/12 07:00:17;;;;;;;6.80;3.63;;;20.90;75.20;;;;;;5074221;28;20091;-15
2022/09/12 07:02:42;;;;;;;5.70;3.50;;;21.00;74.90;;;;;;5074105;28;20012;-15
2022/09/12 07:05:09;;;;;;;6.05;3.30;;;21.30;74.40;;;;;;5074034;28;20035;-15
2022/09/12 07:07:35;;;;;;;6.30;3.28;;;21.50;73.60;;;;;;5074312;28;20111;-15
2022/09/12 07:10:02;;;;;;;6.15;3.20;;;21.60;71.80;;;;;;5074336;28;20158;-15
2022/09/12 07:12:28;;;;;;;2.75;2.53;;;21.70;71.80;;;;;;5073828;28;20039;-16
2022/09/12 07:14:54;;;;;;;3.78;2.60;;;22.00;71.70;;;;;;5074089;28;20472;-16
2022/09/12 07:17:20;;;;;;;5.55;2.85;;;22.20;71.20;;;;;;5074110;28;20074;-15
2022/09/12 07:19:46;;;;;;;4.75;2.45;;;22.60;70.30;;;;;;5074020;28;20111;-15
2022/09/12 07:22:12;;;;;;;2.78;2.28;;;22.90;68.70;;;;;;5073746;28;20027;-15
2022/09/12 07:24:40;;;;;;;3.80;2.25;;;23.10;67.20;;;;;;5073690;28;20028;-15
2022/09/12 07:27:05;;;;;;;2.85;2.17;;;23.20;66.20;;;;;;5073559;28;20518;-15
2022/09/12 07:29:31;;;;;;;4.28;2.10;;;23.30;65.60;;;;;;5073527;28;20048;-15
2022/09/12 07:31:58;;;;;;;2.65;1.50;;;23.50;66.20;;;;;;5073950;28;20511;-15
2022/09/12 07:34:24;;;;;;;2.67;1.88;;;23.80;64.50;;;;;;5073745;28;20538;-15
2022/09/12 07:36:50;;;;;;;3.67;2.00;;;23.90;64.70;;;;;;5073509;28;20020;-14
2022/09/12 07:39:16;;;;;;;1.88;1.63;;;24.10;62.60;;;;;;5073790;28;20033;-16
2022/09/12 07:41:42;;;;;;;3.53;1.77;;;24.40;61.10;;;;;;5073831;28;20491;-15
2022/09/12 07:44:08;;;;;;;3.50;1.85;;;24.50;60.20;;;;;;5073718;28;20029;-15
2022/09/12 07:46:34;;;;;;;2.50;1.88;;;24.50;60.60;;;;;;5072810;28;20024;-15
2022/09/12 07:49:01;;;;;;;5.07;2.70;;;24.60;60.00;;;;;;5073351;28;20059;-14
2022/09/12 07:51:29;;;;;;;4.97;2.60;;;24.70;58.10;;;;;;5073180;28;20392;-14
2022/09/12 07:53:56;;;;;;;3.97;2.80;;;24.90;59.50;;;;;;5073342;28;20043;-15
2022/09/12 07:56:23;;;;;;;4.13;2.25;;;25.00;59.60;;;;;;5073245;28;20480;-14
2022/09/12 07:58:48;;;;;;;3.50;2.20;;;25.10;59.40;;;;;;5073195;28;20032;-14
2022/09/12 08:01:20;;;;;;;4.72;2.60;;;25.20;59.00;;;;;;5073480;28;20021;-15
2022/09/12 08:03:49;;;;;;;6.53;2.50;;;25.40;57.90;;;;;;5073547;28;20051;-15
2022/09/12 08:06:24;;;;;;;4.10;1.70;;;25.60;58.00;;;;;;5073286;28;20025;-15
2022/09/12 08:08:53;;;;;;;9.60;2.22;;;25.90;56.70;;;;;;5073070;28;20074;-14
2022/09/12 08:11:21;;;;;;;5.20;1.90;;;26.10;55.60;;;;;;5072996;28;20075;-14
2022/09/12 08:13:48;;;;;;;2.55;1.60;;;26.30;55.30;;;;;;5073368;28;20029;-15
2022/09/12 08:16:17;;;;;;;6.32;1.60;;;26.50;54.30;;;;;;5073036;28;20488;-15
2022/09/12 08:18:44;;;;;;;3.50;1.60;;;26.70;53.50;;;;;;5072924;28;20071;-15
2022/09/12 08:21:22;;;;;;;2.58;1.63;;;26.80;51.90;;;;;;5072911;28;20058;-14
2022/09/12 08:23:52;;;;;;;4.28;1.50;;;26.80;51.50;;;;;;5073014;28;20028;-15
2022/09/12 08:26:19;;;;;;;4.50;1.80;;;26.70;53.10;;;;;;5072101;28;20028;-15
2022/09/12 08:28:45;;;;;;;4.25;1.90;;;26.80;53.10;;;;;;5072692;28;20041;-15
2022/09/12 08:31:14;;;;;;;3.40;1.73;;;26.90;52.40;;;;;;5072677;28;20044;-14
2022/09/12 08:33:40;;;;;;;3.15;1.50;;;26.90;52.40;;;;;;5072665;28;20085;-14
2022/09/12 08:36:09;;;;;;;3.30;2.00;;;27.10;52.00;;;;;;5072812;28;20021;-15
2022/09/12 08:38:37;;;;;;;3.25;1.80;;;27.10;51.40;;;;;;5071609;28;20036;-14
2022/09/12 08:41:06;;;;;;;2.30;1.58;;;27.10;49.60;;;;;;5072674;28;20013;-15
2022/09/12 08:43:41;;;;;;;3.10;1.48;;;27.00;51.60;;;;;;5072764;28;20491;-15
2022/09/12 08:46:31;;;;;;;3.95;1.50;;;27.20;51.70;;;;;;5072806;28;20029;-15
2022/09/12 08:49:01;;;;;;;4.70;1.45;;;27.20;50.10;;;;;;5072451;28;20365;-15
2022/09/12 08:51:29;;;;;;;3.63;1.42;;;27.30;51.20;;;;;;5072682;28;20116;-15
2022/09/12 08:53:56;;;;;;;2.05;1.33;;;27.50;51.40;;;;;;5072923;28;20052;-14
2022/09/12 08:56:23;;;;;;;9.93;2.05;;;27.90;51.00;;;;;;5073699;28;20025;-14
2022/09/12 08:58:49;;;;;;;11.98;2.35;;;28.00;50.00;;;;;;5076295;28;20024;-15
2022/09/12 09:01:39;;;;;;;2.75;1.30;;;28.20;47.00;;;;;;5076707;28;20464;-15
2022/09/12 09:04:26;;;;;;;4.43;1.75;;;28.20;47.90;;;;;;5076363;28;20045;-15
2022/09/12 09:07:10;;;;;;;2.35;1.17;;;28.30;49.30;;;;;;5076446;28;20044;-15
2022/09/12 09:10:21;;;;;;;1.08;1.02;;;28.50;48.10;;;;;;5076329;28;20448;-15
2022/09/12 09:12:52;;;;;;;1.35;1.10;;;28.60;46.10;;;;;;5014322;28;20490;-15
2022/09/12 09:16:01;;;;;;;3.65;1.50;;;28.80;48.50;;;;;;5015113;28;20505;-14
2022/09/12 09:18:34;;;;;;;3.42;1.33;;;29.00;46.90;;;;;;4956199;29;20442;-15
2022/09/12 09:21:29;;;;;;;1.90;1.10;;;29.20;48.40;;;;;;4955782;29;20400;-13
2022/09/12 09:24:09;;;;;;;1.27;0.80;;;29.40;48.30;;;;;;4949449;29;20030;-15
2022/09/12 09:26:50;;;;;;;5.60;1.95;;;29.70;47.30;;;;;;4956017;29;20034;-15
2022/09/12 09:29:18;;;;;;;3.38;1.42;;;30.00;45.80;;;;;;4955595;29;20051;-15
2022/09/12 09:31:48;;;;;;;1.77;1.52;;;30.10;46.60;;;;;;4955713;29;20036;-15
2022/09/12 09:34:23;;;;;;;1.80;1.20;;;30.10;45.70;;;;;;4956534;29;20114;-15
2022/09/12 09:36:51;;;;;;;1.60;1.50;;;29.90;46.30;;;;;;4955598;29;20028;-14
2022/09/12 09:39:22;;;;;;;2.10;1.30;;;29.80;47.40;;;;;;4955657;29;20031;-15
2022/09/12 09:42:09;;;;;;;2.80;1.27;;;30.00;47.10;;;;;;4955646;29;20074;-15
2022/09/12 09:44:35;;;;;;;5.43;1.90;;;30.40;46.20;;;;;;4955595;29;20031;-15
2022/09/12 09:47:02;;;;;;;2.80;1.35;;;30.80;45.80;;;;;;4955374;29;20159;-15
2022/09/12 09:49:32;;;;;;;6.25;2.03;;;31.00;44.80;;;;;;5021322;28;20043;-15
2022/09/12 09:52:02;;;;;;;2.00;1.80;;;31.10;44.40;;;;;;5075765;28;20037;-15
2022/09/12 09:54:36;;;;;;;1.58;1.48;;;31.30;44.80;;;;;;5075738;28;20488;-15
2022/09/12 09:57:04;;;;;;;2.35;1.40;;;31.60;44.60;;;;;;5075111;28;20034;-15
2022/09/12 09:59:32;;;;;;;3.70;1.60;;;32.00;43.70;;;;;;5075585;28;20036;-15
2022/09/12 10:02:24;;;;;;;1.50;1.20;;;32.30;43.20;;;;;;5075505;28;20016;-15
2022/09/12 10:04:56;;;;;;;5.03;1.60;;;32.60;41.60;;;;;;5075382;28;20128;-15
2022/09/12 10:07:24;;;;;;;1.75;1.38;;;32.90;39.40;;;;;;5075520;28;20027;-14
2022/09/12 10:10:16;;;;;;;2.65;1.38;;;33.00;39.40;;;;;;5074881;28;20031;-15
2022/09/12 10:12:43;;;;;;;3.28;2.38;;;33.20;39.80;;;;;;5075256;28;20089;-14
2022/09/12 10:15:21;;;;;;;2.15;1.77;;;33.30;39.10;;;;;;5075039;28;20553;-15
2022/09/12 10:17:49;;;;;;;6.28;1.50;;;33.30;38.90;;;;;;5075392;28;20047;-15
2022/09/12 10:20:36;;;;;;;2.08;1.30;;;33.30;39.80;;;;;;5075202;28;20074;-16
2022/09/12 10:23:31;;;;;;;1.50;1.30;;;33.50;39.20;;;;;;5074898;28;20452;-14
2022/09/12 10:26:02;;;;;;;1.85;1.25;;;33.80;39.10;;;;;;5075032;28;20025;-15
2022/09/12 10:28:46;;;;;;;4.00;1.40;;;34.00;39.10;;;;;;5074855;28;20031;-15
2022/09/12 10:31:42;;;;;;;3.38;1.58;;;34.00;38.40;;;;;;5074869;28;20112;-15
2022/09/12 10:34:29;;;;;;;1.45;1.23;;;34.00;38.60;;;;;;5073643;28;20112;-15
2022/09/12 10:37:03;;;;;;;2.75;1.40;;;34.00;38.20;;;;;;5074669;28;20025;-15
2022/09/12 10:39:31;;;;;;;1.20;1.10;;;33.90;38.80;;;;;;5075025;28;20081;-15
2022/09/12 10:41:58;;;;;;;1.58;1.10;;;33.70;39.90;;;;;;5074550;28;20483;-15
2022/09/12 10:44:30;;;;;;;3.20;1.40;;;33.90;40.30;;;;;;5074787;28;20166;-15
2022/09/12 10:46:58;;;;;;;1.70;0.98;;;34.20;39.00;;;;;;5074642;28;20047;-16
2022/09/12 10:49:30;;;;;;;1.30;1.20;;;34.40;38.40;;;;;;5074344;28;20017;-15
2022/09/12 10:52:15;;;;;;;;;;;34.50;36.80;;;;;;5075160;28;20044;-15
2022/09/12 10:54:42;;;;;;;0.82;0.80;;;34.70;37.40;;;;;;5074381;28;19963;-15
2022/09/12 10:57:08;;;;;;;1.60;1.08;;;34.70;38.50;;;;;;5074095;28;20029;-15
2022/09/12 11:00:04;;;;;;;3.17;1.38;;;34.90;38.40;;;;;;5072998;28;20043;-15
2022/09/12 11:03:08;;;;;;;1.58;0.93;;;35.00;37.30;;;;;;5074510;28;20058;-15
2022/09/12 11:05:49;;;;;;;2.08;1.40;;;35.00;35.70;;;;;;5074077;28;20025;-15
2022/09/12 11:08:43;;;;;;;2.58;1.10;;;35.20;35.70;;;;;;5074411;28;20047;-15
2022/09/12 11:11:33;;;;;;;2.75;1.40;;;35.40;34.40;;;;;;5074136;28;20036;-15
2022/09/12 11:14:24;;;;;;;4.38;1.10;;;35.60;33.70;;;;;;5074033;28;20488;-15
2022/09/12 11:17:18;;;;;;;1.10;0.85;;;35.40;34.00;;;;;;5073634;28;20475;-15
2022/09/12 11:20:26;;;;;;;1.95;0.80;;;34.80;35.20;;;;;;5072931;28;20044;-14
2022/09/12 11:23:05;;;;;;;2.08;0.90;;;34.60;35.10;;;;;;5073326;28;20143;-14
2022/09/12 11:26:24;;;;;;;2.17;1.02;;;34.30;35.30;;;;;;5073614;28;20021;-15
2022/09/12 11:29:17;;;;;;;1.73;1.00;;;34.20;35.90;;;;;;5028937;28;20044;-15
2022/09/12 11:31:58;;;;;;;1.00;1.00;;;34.00;36.00;;;;;;5073295;28;20474;-15
2022/09/12 11:34:49;;;;;;;2.28;1.10;;;33.50;36.20;;;;;;5073240;28;20066;-15
2022/09/12 11:37:27;;;;;;;0.90;0.90;;;33.00;37.50;;;;;;5073701;28;20021;-15
2022/09/12 11:39:58;;;;;;;2.42;0.90;;;32.50;39.10;;;;;;5073462;28;20055;-15
2022/09/12 11:42:29;;;;;;;1.85;0.90;;;32.30;40.30;;;;;;5073446;28;20052;-15
2022/09/12 11:45:06;;;;;;;0.98;0.70;;;32.10;40.40;;;;;;5072857;28;20435;-15
2022/09/12 11:47:34;;;;;;;2.00;1.00;;;31.90;41.10;;;;;;5073434;28;20102;-15
2022/09/12 11:50:06;;;;;;;1.02;0.93;;;32.10;40.70;;;;;;5073056;28;20199;-15
2022/09/12 11:52:38;;;;;;;0.95;0.95;;;32.70;39.80;;;;;;5073480;28;20020;-15
2022/09/12 11:55:28;;;;;;;0.93;0.93;;;33.40;38.30;;;;;;5072790;28;20032;-15
2022/09/12 11:57:58;;;;;;;0.95;0.82;;;34.00;36.90;;;;;;5072900;28;20027;-15
2022/09/12 12:01:11;;;;;;;2.20;1.20;;;34.60;36.70;;;;;;5073132;28;20047;-15
2022/09/12 12:03:45;;;;;;;1.43;0.90;;;34.90;35.50;;;;;;5011476;28;20041;-15
2022/09/12 12:06:25;;;;;;;2.15;1.00;;;35.40;34.50;;;;;;5010924;28;20433;-15
2022/09/12 12:08:52;;;;;;;1.98;1.08;;;35.90;33.30;;;;;;5010863;28;20037;-15
2022/09/12 12:11:32;;;;;;;1.67;1.20;;;36.40;32.60;;;;;;4994434;28;20025;-16
2022/09/12 12:14:02;;;;;;;2.15;1.20;;;36.70;32.20;;;;;;5011042;28;20444;-15
2022/09/12 12:16:36;;;;;;;2.22;1.15;;;37.10;31.70;;;;;;5010959;28;20114;-15
2022/09/12 12:19:20;;;;;;;2.47;1.10;;;37.20;32.30;;;;;;5010724;28;20069;-15
2022/09/12 12:21:50;;;;;;;1.92;0.82;;;36.90;33.00;;;;;;5010956;28;20113;-15
2022/09/12 12:24:25;;;;;;;1.25;0.90;;;36.50;33.70;;;;;;5011299;28;20053;-16
2022/09/12 12:26:57;;;;;;;1.98;1.30;;;36.60;33.40;;;;;;5010980;28;20041;-15
2022/09/12 12:29:23;;;;;;;1.38;0.80;;;36.90;32.80;;;;;;5010946;28;20552;-15
2022/09/12 12:32:03;;;;;;;2.40;1.10;;;37.30;32.80;;;;;;5012368;28;20052;-15
2022/09/12 12:34:37;;;;;;;1.25;1.00;;;37.50;31.20;;;;;;5014828;28;20038;-15
2022/09/12 12:37:28;;;;;;;1.00;0.90;;;37.60;32.40;;;;;;5014782;28;20026;-15
2022/09/12 12:40:23;;;;;;;1.55;1.20;;;38.00;32.40;;;;;;5062216;28;20032;-15
2022/09/12 12:42:55;;;;;;;1.02;0.82;;;38.40;31.50;;;;;;5076851;28;20039;-15
2022/09/12 12:45:27;;;;;;;1.70;1.10;;;38.70;30.90;;;;;;5076808;28;20025;-16
2022/09/12 12:48:08;;;;;;;2.22;1.00;;;38.90;30.00;;;;;;5076502;28;20488;-15
2022/09/12 12:50:34;;;;;;;3.50;1.00;;;38.90;30.00;;;;;;5076505;28;20420;-15
2022/09/12 12:53:23;;;;;;;1.40;1.00;;;38.70;29.60;;;;;;5076401;28;20036;-15
2022/09/12 12:55:52;;;;;;;2.33;1.10;;;38.00;30.30;;;;;;5076646;28;20025;-15
2022/09/12 12:58:40;;;;;;;2.85;1.40;;;37.80;31.00;;;;;;5076537;28;20052;-15
2022/09/12 13:01:13;;;;;;;1.08;1.00;;;37.90;30.20;;;;;;5076345;28;20371;-15
2022/09/12 13:03:53;;;;;;;2.53;1.05;;;37.70;30.70;;;;;;5076398;28;20375;-15
2022/09/12 13:06:39;;;;;;;3.28;1.23;;;37.80;30.10;;;;;;5076081;28;20325;-15
2022/09/12 13:09:18;;;;;;;2.78;0.90;;;37.90;29.80;;;;;;5076126;28;20052;-15
2022/09/12 13:11:45;;;;;;;2.63;1.40;;;38.20;30.00;;;;;;5076475;28;20040;-16
2022/09/12 13:14:40;;;;;;;2.88;1.40;;;38.40;29.90;;;;;;5074899;28;20063;-16
2022/09/12 13:17:13;;;;;;;1.52;1.05;;;38.50;30.00;;;;;;5076274;28;20037;-15
2022/09/12 13:19:40;;;;;;;3.33;1.17;;;38.70;30.30;;;;;;5076388;28;20028;-15
2022/09/12 13:22:08;;;;;;;1.60;1.17;;;38.90;30.20;;;;;;5076094;28;20082;-15